sensor_id;sensor_type;location;lat;lon;timestamp;P1;durP1;ratioP1;P2;durP2;ratioP2
22752;SDS011;11543;43.144;24.684;2024-02-21T00:00:46;36.33;;;18.00;;
22752;SDS011;11543;43.144;24.684;2024-02-21T00:03:11;37.17;;;17.17;;
22752;SDS011;11543;43.144;24.684;2024-02-21T00:05:37;39.15;;;17.60;;
22752;SDS011;11543;43.144;24.684;2024-02-21T00:08:02;33.53;;;16.40;;
22752;SDS011;11543;43.144;24.684;2024-02-21T00:10:31;38.38;;;18.73;;
22752;SDS011;11543;43.144;24.684;2024-02-21T00:13:00;46.95;;;21.67;;
22752;SDS011;11543;43.144;24.684;2024-02-21T00:15:26;50.83;;;22.23;;
22752;SDS011;11543;43.144;24.684;2024-02-21T00:17:51;49.60;;;21.75;;
22752;SDS011;11543;43.144;24.684;2024-02-21T00:20:17;53.92;;;23.50;;
22752;SDS011;11543;43.144;24.684;2024-02-21T00:22:43;50.85;;;21.95;;
22752;SDS011;11543;43.144;24.684;2024-02-21T00:25:09;62.72;;;24.48;;
22752;SDS011;11543;43.144;24.684;2024-02-21T00:27:35;54.47;;;21.77;;
22752;SDS011;11543;43.144;24.684;2024-02-21T00:30:00;122.10;;;33.75;;
22752;SDS011;11543;43.144;24.684;2024-02-21T00:32:26;81.85;;;26.23;;
22752;SDS011;11543;43.144;24.684;2024-02-21T00:34:51;37.70;;;16.48;;
22752;SDS011;11543;43.144;24.684;2024-02-21T00:37:17;38.42;;;17.25;;
22752;SDS011;11543;43.144;24.684;2024-02-21T00:39:42;38.03;;;16.27;;
22752;SDS011;11543;43.144;24.684;2024-02-21T00:42:08;36.00;;;17.38;;
22752;SDS011;11543;43.144;24.684;2024-02-21T00:44:33;15.25;;;8.43;;
22752;SDS011;11543;43.144;24.684;2024-02-21T00:46:59;15.65;;;8.77;;
22752;SDS011;11543;43.144;24.684;2024-02-21T00:49:25;15.38;;;8.43;;
22752;SDS011;11543;43.144;24.684;2024-02-21T00:51:50;11.48;;;7.22;;
22752;SDS011;11543;43.144;24.684;2024-02-21T00:54:16;12.75;;;7.97;;
22752;SDS011;11543;43.144;24.684;2024-02-21T00:56:42;13.20;;;8.13;;
22752;SDS011;11543;43.144;24.684;2024-02-21T00:59:08;12.32;;;7.68;;
22752;SDS011;11543;43.144;24.684;2024-02-21T01:01:33;18.77;;;9.30;;
22752;SDS011;11543;43.144;24.684;2024-02-21T01:03:59;22.05;;;10.48;;
22752;SDS011;11543;43.144;24.684;2024-02-21T01:06:25;43.38;;;17.13;;
22752;SDS011;11543;43.144;24.684;2024-02-21T01:08:50;80.68;;;25.83;;
22752;SDS011;11543;43.144;24.684;2024-02-21T01:11:16;89.43;;;32.08;;
22752;SDS011;11543;43.144;24.684;2024-02-21T01:13:41;91.82;;;34.15;;
22752;SDS011;11543;43.144;24.684;2024-02-21T01:16:07;110.93;;;37.08;;
22752;SDS011;11543;43.144;24.684;2024-02-21T01:18:33;44.28;;;17.80;;
22752;SDS011;11543;43.144;24.684;2024-02-21T01:20:59;45.22;;;17.35;;
22752;SDS011;11543;43.144;24.684;2024-02-21T01:23:24;24.70;;;14.02;;
22752;SDS011;11543;43.144;24.684;2024-02-21T01:25:50;20.65;;;11.43;;
22752;SDS011;11543;43.144;24.684;2024-02-21T01:28:16;20.75;;;12.25;;
22752;SDS011;11543;43.144;24.684;2024-02-21T01:30:42;26.13;;;14.73;;
22752;SDS011;11543;43.144;24.684;2024-02-21T01:33:08;17.40;;;11.10;;
22752;SDS011;11543;43.144;24.684;2024-02-21T01:35:34;18.13;;;10.80;;
22752;SDS011;11543;43.144;24.684;2024-02-21T01:38:01;15.95;;;10.70;;
22752;SDS011;11543;43.144;24.684;2024-02-21T01:40:26;15.88;;;10.52;;
22752;SDS011;11543;43.144;24.684;2024-02-21T01:42:53;15.73;;;10.55;;
22752;SDS011;11543;43.144;24.684;2024-02-21T01:45:20;16.83;;;11.05;;
22752;SDS011;11543;43.144;24.684;2024-02-21T01:47:46;15.43;;;10.38;;
22752;SDS011;11543;43.144;24.684;2024-02-21T01:50:12;19.65;;;11.63;;
22752;SDS011;11543;43.144;24.684;2024-02-21T01:52:38;24.13;;;14.00;;
22752;SDS011;11543;43.144;24.684;2024-02-21T01:55:04;24.95;;;13.50;;
22752;SDS011;11543;43.144;24.684;2024-02-21T01:57:30;23.85;;;12.93;;
22752;SDS011;11543;43.144;24.684;2024-02-21T01:59:57;24.05;;;12.02;;
22752;SDS011;11543;43.144;24.684;2024-02-21T02:02:22;18.40;;;11.35;;
22752;SDS011;11543;43.144;24.684;2024-02-21T02:04:49;19.40;;;12.32;;
22752;SDS011;11543;43.144;24.684;2024-02-21T02:07:15;21.55;;;12.18;;
22752;SDS011;11543;43.144;24.684;2024-02-21T02:09:41;23.50;;;13.48;;
22752;SDS011;11543;43.144;24.684;2024-02-21T02:12:07;26.45;;;14.25;;
22752;SDS011;11543;43.144;24.684;2024-02-21T02:14:33;26.45;;;14.98;;
22752;SDS011;11543;43.144;24.684;2024-02-21T02:16:59;29.80;;;16.08;;
22752;SDS011;11543;43.144;24.684;2024-02-21T02:19:24;32.88;;;18.13;;
22752;SDS011;11543;43.144;24.684;2024-02-21T02:21:50;33.38;;;19.00;;
22752;SDS011;11543;43.144;24.684;2024-02-21T02:24:20;28.43;;;16.47;;
22752;SDS011;11543;43.144;24.684;2024-02-21T02:26:49;27.27;;;16.00;;
22752;SDS011;11543;43.144;24.684;2024-02-21T02:29:14;24.05;;;14.57;;
22752;SDS011;11543;43.144;24.684;2024-02-21T02:31:40;24.40;;;13.85;;
22752;SDS011;11543;43.144;24.684;2024-02-21T02:34:05;25.42;;;14.15;;
22752;SDS011;11543;43.144;24.684;2024-02-21T02:36:34;25.50;;;15.20;;
22752;SDS011;11543;43.144;24.684;2024-02-21T02:39:00;27.83;;;14.57;;
22752;SDS011;11543;43.144;24.684;2024-02-21T02:41:26;25.30;;;14.30;;
22752;SDS011;11543;43.144;24.684;2024-02-21T02:43:51;21.15;;;12.95;;
22752;SDS011;11543;43.144;24.684;2024-02-21T02:46:17;24.85;;;14.85;;
22752;SDS011;11543;43.144;24.684;2024-02-21T02:48:42;24.67;;;14.57;;
22752;SDS011;11543;43.144;24.684;2024-02-21T02:51:08;28.58;;;17.25;;
22752;SDS011;11543;43.144;24.684;2024-02-21T02:53:33;26.25;;;16.23;;
22752;SDS011;11543;43.144;24.684;2024-02-21T02:55:59;27.27;;;15.70;;
22752;SDS011;11543;43.144;24.684;2024-02-21T02:58:24;26.50;;;15.77;;
22752;SDS011;11543;43.144;24.684;2024-02-21T03:00:50;25.60;;;15.15;;
22752;SDS011;11543;43.144;24.684;2024-02-21T03:03:15;21.65;;;14.23;;
22752;SDS011;11543;43.144;24.684;2024-02-21T03:05:41;23.23;;;14.20;;
22752;SDS011;11543;43.144;24.684;2024-02-21T03:08:06;22.65;;;13.63;;
22752;SDS011;11543;43.144;24.684;2024-02-21T03:10:33;21.10;;;13.77;;
22752;SDS011;11543;43.144;24.684;2024-02-21T03:12:59;26.23;;;14.30;;
22752;SDS011;11543;43.144;24.684;2024-02-21T03:15:24;30.95;;;17.65;;
22752;SDS011;11543;43.144;24.684;2024-02-21T03:17:50;32.20;;;19.23;;
22752;SDS011;11543;43.144;24.684;2024-02-21T03:20:15;27.63;;;16.83;;
22752;SDS011;11543;43.144;24.684;2024-02-21T03:22:41;28.45;;;16.55;;
22752;SDS011;11543;43.144;24.684;2024-02-21T03:25:07;26.95;;;15.95;;
22752;SDS011;11543;43.144;24.684;2024-02-21T03:27:33;27.42;;;16.30;;
22752;SDS011;11543;43.144;24.684;2024-02-21T03:29:59;25.25;;;15.85;;
22752;SDS011;11543;43.144;24.684;2024-02-21T03:32:27;28.73;;;16.83;;
22752;SDS011;11543;43.144;24.684;2024-02-21T03:34:53;27.73;;;16.77;;
22752;SDS011;11543;43.144;24.684;2024-02-21T03:37:20;26.95;;;16.30;;
22752;SDS011;11543;43.144;24.684;2024-02-21T03:39:45;27.83;;;16.85;;
22752;SDS011;11543;43.144;24.684;2024-02-21T03:42:11;31.05;;;18.48;;
22752;SDS011;11543;43.144;24.684;2024-02-21T03:44:40;29.35;;;17.88;;
22752;SDS011;11543;43.144;24.684;2024-02-21T03:47:06;32.95;;;18.02;;
22752;SDS011;11543;43.144;24.684;2024-02-21T03:49:31;29.50;;;18.13;;
22752;SDS011;11543;43.144;24.684;2024-02-21T03:51:57;27.30;;;17.15;;
22752;SDS011;11543;43.144;24.684;2024-02-21T03:54:22;29.83;;;16.77;;
22752;SDS011;11543;43.144;24.684;2024-02-21T03:56:48;28.27;;;16.58;;
22752;SDS011;11543;43.144;24.684;2024-02-21T03:59:14;25.30;;;15.32;;
22752;SDS011;11543;43.144;24.684;2024-02-21T04:01:39;25.25;;;14.70;;
22752;SDS011;11543;43.144;24.684;2024-02-21T04:04:05;25.17;;;14.02;;
22752;SDS011;11543;43.144;24.684;2024-02-21T04:06:31;22.25;;;13.25;;
22752;SDS011;11543;43.144;24.684;2024-02-21T04:09:00;24.27;;;14.13;;
22752;SDS011;11543;43.144;24.684;2024-02-21T04:11:26;23.40;;;14.88;;
22752;SDS011;11543;43.144;24.684;2024-02-21T04:13:54;24.85;;;15.23;;
22752;SDS011;11543;43.144;24.684;2024-02-21T04:16:19;23.67;;;14.90;;
22752;SDS011;11543;43.144;24.684;2024-02-21T04:18:49;22.45;;;14.77;;
22752;SDS011;11543;43.144;24.684;2024-02-21T04:21:16;24.30;;;15.57;;
22752;SDS011;11543;43.144;24.684;2024-02-21T04:23:44;23.10;;;15.23;;
22752;SDS011;11543;43.144;24.684;2024-02-21T04:26:09;30.50;;;17.63;;
22752;SDS011;11543;43.144;24.684;2024-02-21T04:28:35;30.90;;;18.63;;
22752;SDS011;11543;43.144;24.684;2024-02-21T04:31:00;33.20;;;18.88;;
22752;SDS011;11543;43.144;24.684;2024-02-21T04:33:26;35.70;;;20.98;;
22752;SDS011;11543;43.144;24.684;2024-02-21T04:35:52;40.15;;;22.33;;
22752;SDS011;11543;43.144;24.684;2024-02-21T04:38:22;30.42;;;17.40;;
22752;SDS011;11543;43.144;24.684;2024-02-21T04:40:47;25.23;;;16.42;;
22752;SDS011;11543;43.144;24.684;2024-02-21T04:43:13;28.60;;;17.08;;
22752;SDS011;11543;43.144;24.684;2024-02-21T04:45:39;26.40;;;16.15;;
22752;SDS011;11543;43.144;24.684;2024-02-21T04:48:04;24.88;;;14.85;;
22752;SDS011;11543;43.144;24.684;2024-02-21T04:50:30;25.65;;;16.33;;
22752;SDS011;11543;43.144;24.684;2024-02-21T04:52:55;23.98;;;15.15;;
22752;SDS011;11543;43.144;24.684;2024-02-21T04:55:21;23.95;;;15.02;;
22752;SDS011;11543;43.144;24.684;2024-02-21T04:57:46;21.95;;;14.43;;
22752;SDS011;11543;43.144;24.684;2024-02-21T05:00:12;23.35;;;15.20;;
22752;SDS011;11543;43.144;24.684;2024-02-21T05:02:37;29.25;;;18.27;;
22752;SDS011;11543;43.144;24.684;2024-02-21T05:05:03;28.65;;;18.10;;
22752;SDS011;11543;43.144;24.684;2024-02-21T05:07:29;29.40;;;17.83;;
22752;SDS011;11543;43.144;24.684;2024-02-21T05:09:54;27.38;;;16.35;;
22752;SDS011;11543;43.144;24.684;2024-02-21T05:12:20;25.67;;;16.88;;
22752;SDS011;11543;43.144;24.684;2024-02-21T05:14:45;26.90;;;17.98;;
22752;SDS011;11543;43.144;24.684;2024-02-21T05:17:11;24.13;;;16.15;;
22752;SDS011;11543;43.144;24.684;2024-02-21T05:19:40;26.05;;;15.85;;
22752;SDS011;11543;43.144;24.684;2024-02-21T05:22:06;24.85;;;13.98;;
22752;SDS011;11543;43.144;24.684;2024-02-21T05:24:31;26.27;;;14.40;;
22752;SDS011;11543;43.144;24.684;2024-02-21T05:26:56;22.95;;;15.18;;
22752;SDS011;11543;43.144;24.684;2024-02-21T05:29:22;29.98;;;19.42;;
22752;SDS011;11543;43.144;24.684;2024-02-21T05:34:20;25.77;;;16.92;;
22752;SDS011;11543;43.144;24.684;2024-02-21T05:36:46;35.22;;;20.15;;
22752;SDS011;11543;43.144;24.684;2024-02-21T05:39:12;32.95;;;22.48;;
22752;SDS011;11543;43.144;24.684;2024-02-21T05:41:38;34.28;;;23.33;;
22752;SDS011;11543;43.144;24.684;2024-02-21T05:44:03;38.80;;;25.95;;
22752;SDS011;11543;43.144;24.684;2024-02-21T05:46:29;39.03;;;25.60;;
22752;SDS011;11543;43.144;24.684;2024-02-21T05:48:55;31.00;;;20.10;;
22752;SDS011;11543;43.144;24.684;2024-02-21T05:51:20;50.72;;;26.75;;
22752;SDS011;11543;43.144;24.684;2024-02-21T05:53:46;68.70;;;33.97;;
22752;SDS011;11543;43.144;24.684;2024-02-21T05:56:11;73.85;;;36.45;;
22752;SDS011;11543;43.144;24.684;2024-02-21T05:58:37;73.60;;;37.67;;
22752;SDS011;11543;43.144;24.684;2024-02-21T06:01:03;56.03;;;29.27;;
22752;SDS011;11543;43.144;24.684;2024-02-21T06:03:30;40.40;;;23.05;;
22752;SDS011;11543;43.144;24.684;2024-02-21T06:05:57;32.30;;;19.95;;
22752;SDS011;11543;43.144;24.684;2024-02-21T06:08:23;35.22;;;20.00;;
22752;SDS011;11543;43.144;24.684;2024-02-21T06:10:48;41.13;;;24.17;;
22752;SDS011;11543;43.144;24.684;2024-02-21T06:13:17;42.00;;;22.67;;
22752;SDS011;11543;43.144;24.684;2024-02-21T06:15:42;29.77;;;19.80;;
22752;SDS011;11543;43.144;24.684;2024-02-21T06:18:08;32.28;;;18.80;;
22752;SDS011;11543;43.144;24.684;2024-02-21T06:20:33;38.83;;;20.55;;
22752;SDS011;11543;43.144;24.684;2024-02-21T06:23:01;39.08;;;20.45;;
22752;SDS011;11543;43.144;24.684;2024-02-21T06:25:27;49.03;;;28.40;;
22752;SDS011;11543;43.144;24.684;2024-02-21T06:27:52;54.78;;;33.97;;
22752;SDS011;11543;43.144;24.684;2024-02-21T06:30:18;66.47;;;34.05;;
22752;SDS011;11543;43.144;24.684;2024-02-21T06:32:43;61.50;;;37.53;;
22752;SDS011;11543;43.144;24.684;2024-02-21T06:35:09;57.05;;;30.40;;
22752;SDS011;11543;43.144;24.684;2024-02-21T06:37:34;45.30;;;25.65;;
22752;SDS011;11543;43.144;24.684;2024-02-21T06:40:00;36.45;;;23.27;;
22752;SDS011;11543;43.144;24.684;2024-02-21T06:42:25;47.85;;;27.70;;
22752;SDS011;11543;43.144;24.684;2024-02-21T06:44:51;45.17;;;26.75;;
22752;SDS011;11543;43.144;24.684;2024-02-21T06:47:17;53.83;;;30.13;;
22752;SDS011;11543;43.144;24.684;2024-02-21T06:49:42;51.50;;;29.90;;
22752;SDS011;11543;43.144;24.684;2024-02-21T06:52:08;50.67;;;28.23;;
22752;SDS011;11543;43.144;24.684;2024-02-21T06:54:33;67.22;;;37.25;;
22752;SDS011;11543;43.144;24.684;2024-02-21T06:56:59;64.72;;;33.13;;
22752;SDS011;11543;43.144;24.684;2024-02-21T06:59:24;50.28;;;25.98;;
22752;SDS011;11543;43.144;24.684;2024-02-21T07:01:53;42.40;;;22.85;;
22752;SDS011;11543;43.144;24.684;2024-02-21T07:04:20;32.47;;;19.02;;
22752;SDS011;11543;43.144;24.684;2024-02-21T07:06:46;32.10;;;20.23;;
22752;SDS011;11543;43.144;24.684;2024-02-21T07:09:11;39.58;;;24.45;;
22752;SDS011;11543;43.144;24.684;2024-02-21T07:11:37;42.42;;;24.02;;
22752;SDS011;11543;43.144;24.684;2024-02-21T07:24:41;35.15;;;21.67;;
22752;SDS011;11543;43.144;24.684;2024-02-21T07:27:07;38.55;;;20.75;;
22752;SDS011;11543;43.144;24.684;2024-02-21T07:29:33;37.72;;;22.17;;
22752;SDS011;11543;43.144;24.684;2024-02-21T07:31:59;37.03;;;23.77;;
22752;SDS011;11543;43.144;24.684;2024-02-21T07:34:24;33.90;;;20.88;;
22752;SDS011;11543;43.144;24.684;2024-02-21T07:36:50;19.48;;;13.80;;
22752;SDS011;11543;43.144;24.684;2024-02-21T07:39:15;26.17;;;17.67;;
22752;SDS011;11543;43.144;24.684;2024-02-21T07:41:41;26.52;;;18.40;;
22752;SDS011;11543;43.144;24.684;2024-02-21T07:44:10;37.80;;;22.60;;
22752;SDS011;11543;43.144;24.684;2024-02-21T07:46:35;25.40;;;16.80;;
22752;SDS011;11543;43.144;24.684;2024-02-21T07:49:01;31.38;;;19.73;;
22752;SDS011;11543;43.144;24.684;2024-02-21T07:51:27;13.98;;;8.43;;
22752;SDS011;11543;43.144;24.684;2024-02-21T07:53:53;13.40;;;7.97;;
22752;SDS011;11543;43.144;24.684;2024-02-21T07:56:19;9.02;;;6.20;;
22752;SDS011;11543;43.144;24.684;2024-02-21T07:58:44;11.55;;;7.38;;
22752;SDS011;11543;43.144;24.684;2024-02-21T08:01:10;9.38;;;6.68;;
22752;SDS011;11543;43.144;24.684;2024-02-21T08:03:35;172.35;;;74.10;;
22752;SDS011;11543;43.144;24.684;2024-02-21T08:06:02;19.77;;;11.23;;
22752;SDS011;11543;43.144;24.684;2024-02-21T08:08:28;14.55;;;9.98;;
22752;SDS011;11543;43.144;24.684;2024-02-21T08:10:53;23.70;;;14.75;;
22752;SDS011;11543;43.144;24.684;2024-02-21T08:13:19;29.73;;;18.92;;
22752;SDS011;11543;43.144;24.684;2024-02-21T08:15:44;23.80;;;14.80;;
22752;SDS011;11543;43.144;24.684;2024-02-21T08:18:10;21.25;;;12.40;;
22752;SDS011;11543;43.144;24.684;2024-02-21T08:20:35;14.57;;;8.88;;
22752;SDS011;11543;43.144;24.684;2024-02-21T08:23:01;13.00;;;8.43;;
22752;SDS011;11543;43.144;24.684;2024-02-21T08:25:27;12.48;;;8.80;;
22752;SDS011;11543;43.144;24.684;2024-02-21T08:27:59;14.00;;;9.27;;
22752;SDS011;11543;43.144;24.684;2024-02-21T08:30:24;13.23;;;8.75;;
22752;SDS011;11543;43.144;24.684;2024-02-21T08:32:50;15.18;;;9.27;;
22752;SDS011;11543;43.144;24.684;2024-02-21T08:35:16;14.43;;;9.27;;
22752;SDS011;11543;43.144;24.684;2024-02-21T08:37:43;14.13;;;9.35;;
22752;SDS011;11543;43.144;24.684;2024-02-21T08:40:09;12.65;;;8.95;;
22752;SDS011;11543;43.144;24.684;2024-02-21T08:42:35;13.55;;;9.35;;
22752;SDS011;11543;43.144;24.684;2024-02-21T08:45:02;13.80;;;10.10;;
22752;SDS011;11543;43.144;24.684;2024-02-21T08:47:28;14.38;;;10.48;;
22752;SDS011;11543;43.144;24.684;2024-02-21T08:49:54;15.02;;;10.70;;
22752;SDS011;11543;43.144;24.684;2024-02-21T08:52:19;13.85;;;9.82;;
22752;SDS011;11543;43.144;24.684;2024-02-21T08:54:45;13.90;;;9.80;;
22752;SDS011;11543;43.144;24.684;2024-02-21T08:57:10;12.65;;;9.13;;
22752;SDS011;11543;43.144;24.684;2024-02-21T08:59:36;14.57;;;8.73;;
22752;SDS011;11543;43.144;24.684;2024-02-21T09:02:01;13.32;;;9.10;;
22752;SDS011;11543;43.144;24.684;2024-02-21T09:04:28;12.63;;;8.57;;
22752;SDS011;11543;43.144;24.684;2024-02-21T09:06:54;14.43;;;9.52;;
22752;SDS011;11543;43.144;24.684;2024-02-21T09:09:20;12.63;;;8.40;;
22752;SDS011;11543;43.144;24.684;2024-02-21T09:11:45;13.80;;;8.90;;
22752;SDS011;11543;43.144;24.684;2024-02-21T09:14:11;14.35;;;9.50;;
22752;SDS011;11543;43.144;24.684;2024-02-21T09:16:56;12.80;;;8.77;;
22752;SDS011;11543;43.144;24.684;2024-02-21T09:19:22;12.48;;;8.50;;
22752;SDS011;11543;43.144;24.684;2024-02-21T09:21:47;12.77;;;8.45;;
22752;SDS011;11543;43.144;24.684;2024-02-21T09:24:30;13.75;;;8.77;;
22752;SDS011;11543;43.144;24.684;2024-02-21T09:26:56;11.07;;;8.25;;
22752;SDS011;11543;43.144;24.684;2024-02-21T09:29:22;12.95;;;8.48;;
22752;SDS011;11543;43.144;24.684;2024-02-21T09:31:47;12.57;;;8.80;;
22752;SDS011;11543;43.144;24.684;2024-02-21T09:34:13;14.02;;;9.27;;
22752;SDS011;11543;43.144;24.684;2024-02-21T09:36:38;13.45;;;9.48;;
22752;SDS011;11543;43.144;24.684;2024-02-21T09:39:05;12.73;;;9.52;;
22752;SDS011;11543;43.144;24.684;2024-02-21T09:41:31;10.82;;;7.78;;
22752;SDS011;11543;43.144;24.684;2024-02-21T09:44:01;15.45;;;9.48;;
22752;SDS011;11543;43.144;24.684;2024-02-21T09:46:36;15.68;;;9.95;;
22752;SDS011;11543;43.144;24.684;2024-02-21T09:51:51;14.65;;;10.25;;
22752;SDS011;11543;43.144;24.684;2024-02-21T09:54:18;28.70;;;14.73;;
22752;SDS011;11543;43.144;24.684;2024-02-21T09:56:46;14.57;;;9.77;;
22752;SDS011;11543;43.144;24.684;2024-02-21T09:59:12;12.43;;;8.90;;
22752;SDS011;11543;43.144;24.684;2024-02-21T10:01:42;9.70;;;7.05;;
22752;SDS011;11543;43.144;24.684;2024-02-21T10:04:10;8.20;;;6.57;;
22752;SDS011;11543;43.144;24.684;2024-02-21T10:06:36;7.43;;;5.63;;
22752;SDS011;11543;43.144;24.684;2024-02-21T10:09:02;7.50;;;5.47;;
22752;SDS011;11543;43.144;24.684;2024-02-21T10:11:28;8.52;;;5.70;;
22752;SDS011;11543;43.144;24.684;2024-02-21T10:14:06;6.85;;;5.05;;
22752;SDS011;11543;43.144;24.684;2024-02-21T10:16:33;6.18;;;4.75;;
22752;SDS011;11543;43.144;24.684;2024-02-21T10:18:59;6.55;;;4.82;;
22752;SDS011;11543;43.144;24.684;2024-02-21T10:21:25;6.90;;;4.57;;
22752;SDS011;11543;43.144;24.684;2024-02-21T10:23:50;7.00;;;4.72;;
22752;SDS011;11543;43.144;24.684;2024-02-21T10:26:18;10.57;;;4.50;;
22752;SDS011;11543;43.144;24.684;2024-02-21T10:28:44;6.70;;;4.20;;
22752;SDS011;11543;43.144;24.684;2024-02-21T10:31:20;6.15;;;4.20;;
22752;SDS011;11543;43.144;24.684;2024-02-21T10:33:53;5.05;;;3.70;;
22752;SDS011;11543;43.144;24.684;2024-02-21T10:36:22;5.47;;;3.72;;
22752;SDS011;11543;43.144;24.684;2024-02-21T10:38:49;5.97;;;3.90;;
22752;SDS011;11543;43.144;24.684;2024-02-21T10:41:15;4.05;;;2.92;;
22752;SDS011;11543;43.144;24.684;2024-02-21T10:43:41;5.95;;;3.10;;
22752;SDS011;11543;43.144;24.684;2024-02-21T10:46:12;4.30;;;3.03;;
22752;SDS011;11543;43.144;24.684;2024-02-21T10:48:47;4.13;;;3.30;;
22752;SDS011;11543;43.144;24.684;2024-02-21T10:53:58;4.20;;;3.10;;
22752;SDS011;11543;43.144;24.684;2024-02-21T10:56:33;5.55;;;3.20;;
22752;SDS011;11543;43.144;24.684;2024-02-21T10:59:02;4.13;;;3.13;;
22752;SDS011;11543;43.144;24.684;2024-02-21T11:01:29;6.85;;;2.90;;
22752;SDS011;11543;43.144;24.684;2024-02-21T11:04:00;3.47;;;2.72;;
22752;SDS011;11543;43.144;24.684;2024-02-21T11:06:28;3.67;;;2.65;;
22752;SDS011;11543;43.144;24.684;2024-02-21T11:09:02;3.25;;;2.42;;
22752;SDS011;11543;43.144;24.684;2024-02-21T11:11:30;4.53;;;2.50;;
22752;SDS011;11543;43.144;24.684;2024-02-21T11:14:17;3.17;;;2.53;;
22752;SDS011;11543;43.144;24.684;2024-02-21T11:16:43;4.55;;;3.10;;
22752;SDS011;11543;43.144;24.684;2024-02-21T11:19:09;5.50;;;3.42;;
22752;SDS011;11543;43.144;24.684;2024-02-21T11:21:44;5.13;;;2.92;;
22752;SDS011;11543;43.144;24.684;2024-02-21T11:24:10;5.88;;;2.75;;
22752;SDS011;11543;43.144;24.684;2024-02-21T11:26:36;3.85;;;2.80;;
22752;SDS011;11543;43.144;24.684;2024-02-21T11:29:03;3.47;;;2.35;;
22752;SDS011;11543;43.144;24.684;2024-02-21T11:34:10;2.90;;;2.40;;
22752;SDS011;11543;43.144;24.684;2024-02-21T11:36:36;3.60;;;2.38;;
22752;SDS011;11543;43.144;24.684;2024-02-21T11:39:13;4.22;;;2.80;;
22752;SDS011;11543;43.144;24.684;2024-02-21T11:41:47;4.72;;;2.38;;
22752;SDS011;11543;43.144;24.684;2024-02-21T11:44:23;2.95;;;2.30;;
22752;SDS011;11543;43.144;24.684;2024-02-21T11:46:49;2.95;;;2.13;;
22752;SDS011;11543;43.144;24.684;2024-02-21T11:49:15;3.13;;;2.33;;
22752;SDS011;11543;43.144;24.684;2024-02-21T11:51:41;4.50;;;1.90;;
22752;SDS011;11543;43.144;24.684;2024-02-21T11:54:06;2.70;;;1.73;;
22752;SDS011;11543;43.144;24.684;2024-02-21T11:56:32;4.15;;;2.65;;
22752;SDS011;11543;43.144;24.684;2024-02-21T11:58:59;4.15;;;2.60;;
22752;SDS011;11543;43.144;24.684;2024-02-21T12:01:24;4.43;;;2.80;;
22752;SDS011;11543;43.144;24.684;2024-02-21T12:03:50;3.88;;;2.72;;
22752;SDS011;11543;43.144;24.684;2024-02-21T12:06:16;4.88;;;2.90;;
22752;SDS011;11543;43.144;24.684;2024-02-21T12:08:46;3.37;;;2.63;;
22752;SDS011;11543;43.144;24.684;2024-02-21T12:11:21;4.15;;;2.58;;
22752;SDS011;11543;43.144;24.684;2024-02-21T12:14:03;3.45;;;2.65;;
22752;SDS011;11543;43.144;24.684;2024-02-21T12:16:33;5.78;;;3.50;;
22752;SDS011;11543;43.144;24.684;2024-02-21T12:19:00;5.78;;;2.95;;
22752;SDS011;11543;43.144;24.684;2024-02-21T12:21:26;5.38;;;3.00;;
22752;SDS011;11543;43.144;24.684;2024-02-21T12:23:54;5.25;;;3.00;;
22752;SDS011;11543;43.144;24.684;2024-02-21T12:26:20;4.35;;;2.70;;
22752;SDS011;11543;43.144;24.684;2024-02-21T12:28:46;5.07;;;2.60;;
22752;SDS011;11543;43.144;24.684;2024-02-21T12:31:12;5.07;;;3.10;;
22752;SDS011;11543;43.144;24.684;2024-02-21T12:33:41;3.95;;;2.28;;
22752;SDS011;11543;43.144;24.684;2024-02-21T12:36:08;3.47;;;2.58;;
22752;SDS011;11543;43.144;24.684;2024-02-21T12:38:35;4.32;;;2.58;;
22752;SDS011;11543;43.144;24.684;2024-02-21T12:41:01;5.57;;;2.30;;
22752;SDS011;11543;43.144;24.684;2024-02-21T12:43:27;3.45;;;2.30;;
22752;SDS011;11543;43.144;24.684;2024-02-21T12:45:53;4.10;;;2.53;;
22752;SDS011;11543;43.144;24.684;2024-02-21T12:48:18;4.60;;;2.17;;
22752;SDS011;11543;43.144;24.684;2024-02-21T12:50:50;3.30;;;2.20;;
22752;SDS011;11543;43.144;24.684;2024-02-21T12:53:17;3.20;;;2.30;;
22752;SDS011;11543;43.144;24.684;2024-02-21T12:55:44;4.05;;;2.28;;
22752;SDS011;11543;43.144;24.684;2024-02-21T12:58:11;3.33;;;1.95;;
22752;SDS011;11543;43.144;24.684;2024-02-21T13:00:36;4.38;;;2.45;;
22752;SDS011;11543;43.144;24.684;2024-02-21T13:03:03;3.25;;;2.00;;
22752;SDS011;11543;43.144;24.684;2024-02-21T13:05:28;4.35;;;2.20;;
22752;SDS011;11543;43.144;24.684;2024-02-21T13:07:54;5.00;;;2.50;;
22752;SDS011;11543;43.144;24.684;2024-02-21T13:10:20;4.18;;;2.20;;
22752;SDS011;11543;43.144;24.684;2024-02-21T13:12:46;2.80;;;2.35;;
22752;SDS011;11543;43.144;24.684;2024-02-21T13:15:12;4.32;;;2.50;;
22752;SDS011;11543;43.144;24.684;2024-02-21T13:17:37;3.28;;;2.30;;
22752;SDS011;11543;43.144;24.684;2024-02-21T13:20:03;3.85;;;2.90;;
22752;SDS011;11543;43.144;24.684;2024-02-21T13:22:29;4.18;;;2.55;;
22752;SDS011;11543;43.144;24.684;2024-02-21T13:24:54;3.63;;;2.45;;
22752;SDS011;11543;43.144;24.684;2024-02-21T13:27:20;3.78;;;2.70;;
22752;SDS011;11543;43.144;24.684;2024-02-21T13:29:45;5.40;;;3.10;;
22752;SDS011;11543;43.144;24.684;2024-02-21T13:32:11;4.78;;;3.53;;
22752;SDS011;11543;43.144;24.684;2024-02-21T13:34:36;5.35;;;3.97;;
22752;SDS011;11543;43.144;24.684;2024-02-21T13:37:02;5.85;;;4.25;;
22752;SDS011;11543;43.144;24.684;2024-02-21T13:39:29;7.30;;;4.85;;
22752;SDS011;11543;43.144;24.684;2024-02-21T13:41:55;6.15;;;4.30;;
22752;SDS011;11543;43.144;24.684;2024-02-21T13:44:20;5.65;;;4.30;;
22752;SDS011;11543;43.144;24.684;2024-02-21T13:46:46;7.00;;;4.40;;
22752;SDS011;11543;43.144;24.684;2024-02-21T13:49:11;6.65;;;4.30;;
22752;SDS011;11543;43.144;24.684;2024-02-21T13:51:37;6.22;;;4.22;;
22752;SDS011;11543;43.144;24.684;2024-02-21T13:54:03;7.78;;;5.35;;
22752;SDS011;11543;43.144;24.684;2024-02-21T13:56:29;6.72;;;3.97;;
22752;SDS011;11543;43.144;24.684;2024-02-21T13:58:55;6.05;;;3.97;;
22752;SDS011;11543;43.144;24.684;2024-02-21T14:01:21;8.52;;;5.40;;
22752;SDS011;11543;43.144;24.684;2024-02-21T14:03:46;7.78;;;3.83;;
22752;SDS011;11543;43.144;24.684;2024-02-21T14:06:12;4.97;;;2.88;;
22752;SDS011;11543;43.144;24.684;2024-02-21T14:08:38;5.57;;;3.80;;
22752;SDS011;11543;43.144;24.684;2024-02-21T14:11:05;6.63;;;4.30;;
22752;SDS011;11543;43.144;24.684;2024-02-21T14:13:31;8.07;;;6.20;;
22752;SDS011;11543;43.144;24.684;2024-02-21T14:15:57;7.28;;;5.13;;
22752;SDS011;11543;43.144;24.684;2024-02-21T14:18:22;21.15;;;11.88;;
22752;SDS011;11543;43.144;24.684;2024-02-21T14:20:48;23.40;;;14.52;;
22752;SDS011;11543;43.144;24.684;2024-02-21T14:23:13;11.02;;;6.80;;
22752;SDS011;11543;43.144;24.684;2024-02-21T14:25:39;12.80;;;6.30;;
22752;SDS011;11543;43.144;24.684;2024-02-21T14:28:05;8.00;;;5.65;;
22752;SDS011;11543;43.144;24.684;2024-02-21T14:30:30;8.65;;;4.80;;
22752;SDS011;11543;43.144;24.684;2024-02-21T14:32:56;6.78;;;5.00;;
22752;SDS011;11543;43.144;24.684;2024-02-21T14:35:21;5.85;;;3.95;;